Weather at Laisamis Airport

Public forecast

Using degrees Celsius for public forecast. Weather courtesy of forecast.io.

Closest aviation weather report (METAR) to Laisamis Airport

Report is more than 6 hours old.

Closest report is Marsabit Airport, 47.4 nm (87.7 km) NNE. Retrieved 2015/06/07 06:00 UTC (5 years ago):

HKMB 070600Z 17026KT 9999 FW018 18/15

Closest aviation forecast (TAF) to Laisamis Airport

Closest forecast is Eldoret International Airport, 169.7 nm (314.3 km) WSW. Retrieved 2020/10/26 06:54 UTC (3 hours ago):

TAF TAF HKEL 260500Z 2606/2712 VRB05KT 9999 BKN015 BKN080 BECMG 2606/2609 FEW022CB BKN023 BKN090 TEMPO 2612/2616 VRB10KT -TSRA FEW018CB BKN019 BKN080 BECMG 2618/2621 VRB02KT NSW FEW017CB BKN080 TEMPO 2700/2704 -RA BKN018 BKN090 BECMG 2706/2709 NSW FEW022CB BKN023 BKN090